createdAt,value
2018-10-11T00:01:09.347Z,73.50
2018-10-11T00:04:12.226Z,73.10
2018-10-11T00:07:15.266Z,72.80
2018-10-11T00:10:18.214Z,72.60
2018-10-11T00:13:21.184Z,72.40
2018-10-11T00:16:24.161Z,72.70
2018-10-11T00:19:27.128Z,72.30
2018-10-11T00:22:30.116Z,72.30
2018-10-11T00:25:33.109Z,72.20
2018-10-11T00:28:36.101Z,72.40
2018-10-11T00:31:39.102Z,72.70
2018-10-11T00:34:42.023Z,73.80
2018-10-11T00:37:45.000Z,73.80
2018-10-11T00:40:47.974Z,73.80
2018-10-11T00:43:50.929Z,74.10
2018-10-11T00:46:53.897Z,74.70
2018-10-11T00:49:56.846Z,76.30
2018-10-11T00:52:59.783Z,76.00
2018-10-11T00:56:02.781Z,76.60
2018-10-11T00:59:06.001Z,76.00
2018-10-11T01:02:09.054Z,76.10
2018-10-11T01:05:12.040Z,75.00
2018-10-11T01:08:14.950Z,74.20
2018-10-11T01:11:17.983Z,74.20
2018-10-11T01:14:20.915Z,74.00
2018-10-11T01:17:24.094Z,73.70
2018-10-11T01:20:27.136Z,73.30
2018-10-11T01:23:30.043Z,73.70
2018-10-11T01:26:33.042Z,73.90
2018-10-11T01:29:35.977Z,74.30
2018-10-11T01:32:38.869Z,74.40
2018-10-11T01:35:41.782Z,74.10
2018-10-11T01:38:46.495Z,74.80
2018-10-11T01:41:49.577Z,73.80
2018-10-11T01:44:52.637Z,73.50
2018-10-11T01:47:55.837Z,73.70
2018-10-11T01:50:58.809Z,74.70
2018-10-11T01:54:01.852Z,75.40
2018-10-11T01:57:04.877Z,75.00
2018-10-11T02:00:07.901Z,74.80
2018-10-11T02:03:10.843Z,74.30
2018-10-11T02:06:13.782Z,74.80
2018-10-11T02:09:16.740Z,74.50
2018-10-11T02:12:19.718Z,74.20
2018-10-11T02:15:22.986Z,74.00
2018-10-11T02:18:25.939Z,73.30
2018-10-11T02:21:28.888Z,73.00
2018-10-11T02:24:32.029Z,73.10
2018-10-11T02:27:34.961Z,73.30
2018-10-11T02:30:37.987Z,73.20
2018-10-11T02:33:40.962Z,73.20
2018-10-11T02:36:43.947Z,73.00
2018-10-11T02:39:46.897Z,72.90
2018-10-11T02:42:49.853Z,72.90
2018-10-11T02:45:52.764Z,73.00
2018-10-11T02:48:55.720Z,72.40
2018-10-11T02:51:58.741Z,72.40
2018-10-11T02:55:01.831Z,72.50
2018-10-11T02:58:22.157Z,72.50
2018-10-11T03:01:25.158Z,72.60
2018-10-11T03:04:30.491Z,72.70
2018-10-11T03:07:33.523Z,72.30
2018-10-11T03:10:36.558Z,72.40
2018-10-11T03:13:39.543Z,72.60
2018-10-11T03:16:42.568Z,72.50
2018-10-11T03:19:45.521Z,72.70
2018-10-11T03:22:48.466Z,72.50
2018-10-11T03:25:51.459Z,72.60
2018-10-11T03:28:54.434Z,72.80
2018-10-11T03:31:57.417Z,72.90
2018-10-11T03:35:00.335Z,72.90
2018-10-11T03:38:03.323Z,73.00
2018-10-11T03:41:06.468Z,72.80
2018-10-11T03:44:09.397Z,73.10
2018-10-11T03:47:12.315Z,72.80
2018-10-11T03:50:15.233Z,74.10
2018-10-11T03:53:18.253Z,73.80
2018-10-11T03:56:21.206Z,74.20
2018-10-11T03:59:24.940Z,74.90
2018-10-11T04:02:27.955Z,74.50
2018-10-11T04:05:30.873Z,74.20
2018-10-11T04:08:33.834Z,74.10
2018-10-11T04:11:36.824Z,73.80
2018-10-11T04:14:39.798Z,73.50
2018-10-11T04:17:42.737Z,73.50
2018-10-11T04:20:45.692Z,73.50
2018-10-11T04:23:48.629Z,73.50
2018-10-11T04:26:51.571Z,73.30
2018-10-11T04:29:54.565Z,73.50
2018-10-11T04:32:57.500Z,73.80
2018-10-11T04:36:00.482Z,74.10
2018-10-11T04:39:04.630Z,74.00
2018-10-11T04:42:07.827Z,74.30
2018-10-11T04:45:10.799Z,74.50
2018-10-11T04:48:13.722Z,74.60
2018-10-11T04:51:16.708Z,75.10
2018-10-11T04:54:19.668Z,75.10
2018-10-11T04:57:22.594Z,75.10
2018-10-11T05:00:26.171Z,75.80
2018-10-11T05:03:29.105Z,75.60
2018-10-11T05:06:32.076Z,75.50
2018-10-11T05:09:35.109Z,75.10
2018-10-11T05:12:38.126Z,75.20
2018-10-11T05:15:42.329Z,75.10
2018-10-11T05:18:48.491Z,74.50
2018-10-11T05:21:51.488Z,74.20
2018-10-11T05:24:54.558Z,74.30
2018-10-11T05:27:57.501Z,74.10
2018-10-11T05:31:00.789Z,74.40
2018-10-11T05:34:03.813Z,74.80
2018-10-11T05:37:06.809Z,75.00
2018-10-11T05:40:09.845Z,74.40
2018-10-11T05:43:13.481Z,74.50
2018-10-11T05:46:31.597Z,74.30
2018-10-11T05:49:34.641Z,75.40
2018-10-11T05:52:37.732Z,76.40
2018-10-11T05:55:41.047Z,76.60
2018-10-11T05:58:44.379Z,76.10
2018-10-11T06:01:47.769Z,76.00
2018-10-11T06:04:50.845Z,76.00
2018-10-11T06:07:54.049Z,76.30
2018-10-11T06:10:57.100Z,75.30
2018-10-11T06:14:00.167Z,75.30
2018-10-11T06:17:03.170Z,75.80
2018-10-11T06:20:06.250Z,76.50
2018-10-11T06:23:09.395Z,75.30
2018-10-11T06:26:12.938Z,75.40
2018-10-11T06:29:16.183Z,75.10
2018-10-11T06:32:19.208Z,75.20
2018-10-11T06:35:22.261Z,75.60
2018-10-11T06:38:25.306Z,75.60
2018-10-11T06:41:28.433Z,75.60
2018-10-11T06:44:31.582Z,75.30
2018-10-11T06:47:34.614Z,75.10
2018-10-11T06:50:37.803Z,75.10
2018-10-11T06:53:40.910Z,75.10
2018-10-11T06:56:43.826Z,75.30
2018-10-11T06:59:46.831Z,75.70
2018-10-11T07:02:49.755Z,75.90
2018-10-11T07:05:52.716Z,75.80
2018-10-11T07:08:55.687Z,75.60
2018-10-11T07:11:58.718Z,75.60
2018-10-11T07:15:01.716Z,75.80
2018-10-11T07:18:04.758Z,78.50
2018-10-11T07:21:07.925Z,75.10
2018-10-11T07:24:10.881Z,75.00
2018-10-11T07:27:13.881Z,75.50
2018-10-11T07:30:16.848Z,75.90
2018-10-11T07:33:19.783Z,76.40
2018-10-11T07:36:22.733Z,76.60
2018-10-11T07:39:25.690Z,76.90
2018-10-11T07:42:28.639Z,77.00
2018-10-11T07:45:31.672Z,77.20
2018-10-11T07:48:34.626Z,77.20
2018-10-11T07:51:37.634Z,77.60
2018-10-11T07:54:40.586Z,77.70
2018-10-11T07:57:43.517Z,77.10
2018-10-11T08:00:46.464Z,75.70
2018-10-11T08:03:49.397Z,74.20
2018-10-11T08:06:52.452Z,73.90
2018-10-11T08:09:55.437Z,73.70
2018-10-11T08:12:58.424Z,74.50
2018-10-11T08:16:01.417Z,74.70
2018-10-11T08:19:04.661Z,74.30
2018-10-11T08:22:07.338Z,73.40
2018-10-11T08:25:10.387Z,72.50
2018-10-11T08:28:13.204Z,73.30
2018-10-11T08:31:16.200Z,72.60
2018-10-11T08:34:19.132Z,71.90
2018-10-11T08:37:22.200Z,71.70
2018-10-11T08:40:25.173Z,71.20
2018-10-11T08:43:28.142Z,70.60
2018-10-11T08:46:31.086Z,70.10
2018-10-11T08:49:33.998Z,70.00
2018-10-11T08:52:36.917Z,69.80
2018-10-11T08:55:39.982Z,69.50
2018-10-11T08:58:42.854Z,69.00
2018-10-11T09:01:45.873Z,68.50
2018-10-11T09:04:48.865Z,68.40
2018-10-11T09:07:51.876Z,69.30
2018-10-11T09:10:54.943Z,69.30
2018-10-11T09:13:57.846Z,68.20
2018-10-11T09:17:00.800Z,68.60
2018-10-11T09:20:04.077Z,67.40
2018-10-11T09:23:07.093Z,68.20
2018-10-11T09:26:10.020Z,67.70
2018-10-11T09:29:13.071Z,66.70
2018-10-11T09:32:16.022Z,66.40
2018-10-11T09:35:19.021Z,67.40
2018-10-11T09:38:21.979Z,66.90
2018-10-11T09:41:24.920Z,68.80
2018-10-11T09:44:27.889Z,67.20
2018-10-11T09:47:30.834Z,66.30
2018-10-11T09:50:33.845Z,67.10
2018-10-11T09:53:36.883Z,65.40
2018-10-11T09:57:49.687Z,65.60
2018-10-11T10:00:58.181Z,65.40
2018-10-11T10:04:01.110Z,66.50
2018-10-11T10:07:04.069Z,65.80
2018-10-11T10:10:07.494Z,65.00
2018-10-11T10:13:10.548Z,66.80
2018-10-11T10:16:13.538Z,66.00
2018-10-11T10:19:16.521Z,66.40
2018-10-11T10:22:19.478Z,67.10
2018-10-11T10:25:22.411Z,66.70
2018-10-11T10:28:25.348Z,65.40
2018-10-11T10:31:28.247Z,63.60
2018-10-11T10:34:31.218Z,62.70
2018-10-11T10:37:34.220Z,63.50
2018-10-11T10:40:37.133Z,64.70
2018-10-11T10:43:40.101Z,66.40
2018-10-11T10:46:43.045Z,67.30
2018-10-11T10:49:46.016Z,66.00
2018-10-11T10:52:48.929Z,65.70
2018-10-11T10:55:51.858Z,59.20
2018-10-11T10:58:54.873Z,59.10
2018-10-11T11:01:57.843Z,61.00
2018-10-11T11:05:00.811Z,61.20
2018-10-11T11:08:03.770Z,58.50
2018-10-11T11:11:06.944Z,57.00
2018-10-11T11:14:10.857Z,60.00
2018-10-11T11:17:13.810Z,56.00
2018-10-11T11:20:16.985Z,55.40
2018-10-11T11:23:20.234Z,59.80
2018-10-11T11:26:23.210Z,56.10
2018-10-11T11:29:26.129Z,54.70
2018-10-11T11:32:29.129Z,56.40
2018-10-11T11:35:32.069Z,56.40
2018-10-11T11:38:35.122Z,56.70
2018-10-11T11:41:38.410Z,55.90
2018-10-11T11:44:41.665Z,54.30
2018-10-11T11:47:44.712Z,57.80
2018-10-11T11:50:47.931Z,60.20
2018-10-11T11:53:51.076Z,60.50
2018-10-11T11:56:54.029Z,55.20
2018-10-11T11:59:56.947Z,53.60
2018-10-11T12:03:00.537Z,57.10
2018-10-11T12:06:03.737Z,58.20
2018-10-11T12:09:12.644Z,61.20
2018-10-11T12:12:59.982Z,55.00
2018-10-11T12:16:02.979Z,54.50
2018-10-11T12:19:07.581Z,53.90
2018-10-11T12:22:11.153Z,57.00
2018-10-11T12:25:14.178Z,56.80
2018-10-11T12:28:17.246Z,57.40
2018-10-11T12:31:20.456Z,53.80
2018-10-11T12:34:23.545Z,57.60
2018-10-11T12:37:26.745Z,56.40
2018-10-11T12:40:29.682Z,56.00
2018-10-11T12:43:32.726Z,56.20
2018-10-11T12:46:36.890Z,55.20
2018-10-11T12:49:41.643Z,52.60
2018-10-11T12:52:42.287Z,53.30
2018-10-11T12:55:45.591Z,52.90
2018-10-11T12:58:48.609Z,51.70
2018-10-11T13:01:51.933Z,51.90
2018-10-11T13:04:54.908Z,54.40
2018-10-11T13:07:57.910Z,54.00
2018-10-11T13:11:00.869Z,52.20
2018-10-11T13:14:03.809Z,56.00
2018-10-11T13:17:07.037Z,54.00
2018-10-11T13:20:10.494Z,51.50
2018-10-11T13:23:17.927Z,50.90
2018-10-11T13:26:16.810Z,52.30
2018-10-11T13:29:20.172Z,54.90
2018-10-11T13:32:23.350Z,55.10
2018-10-11T13:35:26.650Z,56.70
2018-10-11T13:38:29.640Z,55.70
2018-10-11T13:41:32.914Z,54.30
2018-10-11T13:44:35.830Z,52.20
2018-10-11T13:47:42.326Z,56.60
2018-10-11T13:50:42.004Z,51.20
2018-10-11T13:53:48.235Z,55.20
2018-10-11T13:56:53.880Z,52.40
2018-10-11T13:59:52.123Z,54.20
2018-10-11T14:02:55.462Z,56.00
2018-10-11T14:05:58.659Z,54.50
2018-10-11T14:09:02.502Z,54.70
2018-10-11T14:12:05.992Z,59.30
2018-10-11T14:15:09.292Z,63.30
2018-10-11T14:18:13.809Z,63.00
2018-10-11T14:21:16.988Z,66.20
2018-10-11T14:24:20.356Z,67.20
2018-10-11T14:27:23.729Z,69.60
2018-10-11T14:30:27.440Z,70.70
2018-10-11T14:33:30.693Z,71.10
2018-10-11T14:36:34.098Z,63.50
2018-10-11T14:39:37.361Z,64.20
2018-10-11T14:42:41.081Z,65.50
2018-10-11T14:45:44.267Z,63.10
2018-10-11T14:48:47.162Z,69.40
2018-10-11T14:51:50.149Z,63.30
2018-10-11T14:54:53.232Z,61.10
2018-10-11T14:57:56.166Z,65.20
2018-10-11T15:00:59.165Z,67.00
2018-10-11T15:04:02.127Z,67.80
2018-10-11T15:07:05.186Z,68.30
2018-10-11T15:10:08.317Z,69.50
2018-10-11T15:13:11.254Z,72.20
2018-10-11T15:16:14.313Z,72.60
2018-10-11T15:19:17.242Z,71.30
2018-10-11T15:22:20.234Z,73.20
2018-10-11T15:25:23.258Z,72.80
2018-10-11T15:28:26.322Z,67.70
2018-10-11T15:31:29.331Z,72.30
2018-10-11T15:34:32.265Z,71.60
2018-10-11T15:37:35.382Z,73.80
2018-10-11T15:40:38.439Z,72.50
2018-10-11T15:43:41.518Z,73.60
2018-10-11T15:46:44.482Z,74.30
2018-10-11T15:49:47.456Z,74.70
2018-10-11T15:52:50.414Z,74.20
2018-10-11T15:55:53.413Z,73.70
2018-10-11T15:58:56.910Z,74.60
2018-10-11T16:01:59.965Z,73.70
2018-10-11T16:05:03.078Z,74.20
2018-10-11T16:08:05.990Z,73.50
2018-10-11T16:11:08.999Z,73.80
2018-10-11T16:14:12.013Z,73.70
2018-10-11T16:17:15.082Z,70.20
2018-10-11T16:20:18.085Z,70.90
2018-10-11T16:23:21.027Z,71.90
2018-10-11T16:26:24.009Z,72.10
2018-10-11T16:29:26.987Z,73.20
2018-10-11T16:32:31.125Z,72.80
2018-10-11T16:35:34.088Z,73.20
2018-10-11T16:38:37.308Z,73.70
2018-10-11T16:41:40.334Z,72.90
2018-10-11T16:44:43.296Z,73.50
2018-10-11T16:47:46.246Z,73.60
2018-10-11T16:50:49.334Z,73.40
2018-10-11T16:53:52.281Z,73.60
2018-10-11T16:56:55.265Z,74.00
2018-10-11T16:59:58.213Z,74.00
2018-10-11T17:03:01.149Z,74.00
2018-10-11T17:06:04.194Z,73.60
2018-10-11T17:09:09.109Z,73.60
2018-10-11T17:12:12.057Z,73.80
2018-10-11T17:15:15.039Z,74.00
2018-10-11T17:18:18.120Z,74.00
2018-10-11T17:21:21.127Z,74.10
2018-10-11T17:24:24.224Z,74.00
2018-10-11T17:27:27.209Z,73.80
2018-10-11T17:30:30.217Z,74.30
2018-10-11T17:33:33.285Z,73.30
2018-10-11T17:36:36.289Z,73.00
2018-10-11T17:39:39.292Z,72.40
2018-10-11T17:42:42.787Z,70.80
2018-10-11T17:45:45.803Z,71.10
2018-10-11T17:48:48.837Z,66.40
2018-10-11T17:51:51.817Z,67.30
2018-10-11T17:54:56.965Z,65.80
2018-10-11T17:57:59.998Z,66.20
2018-10-11T18:01:03.798Z,65.10
2018-10-11T18:04:06.810Z,65.80
2018-10-11T18:07:10.337Z,64.00
2018-10-11T18:10:13.636Z,64.60
2018-10-11T18:13:16.722Z,63.80
2018-10-11T18:16:20.347Z,64.50
2018-10-11T18:19:23.546Z,64.40
2018-10-11T18:22:27.572Z,63.80
2018-10-11T18:25:30.549Z,64.10
2018-10-11T18:28:34.422Z,63.70
2018-10-11T18:31:37.992Z,62.80
2018-10-11T18:34:41.516Z,63.50
2018-10-11T18:37:44.605Z,63.20
2018-10-11T18:40:47.969Z,62.30
2018-10-11T18:43:51.335Z,62.10
2018-10-11T18:46:54.577Z,61.70
2018-10-11T18:49:58.340Z,62.60
2018-10-11T18:53:01.908Z,62.10
2018-10-11T18:56:05.443Z,62.60
2018-10-11T18:59:09.346Z,61.80
2018-10-11T19:02:12.605Z,62.20
2018-10-11T19:05:19.928Z,62.40
2018-10-11T19:08:23.610Z,62.10
2018-10-11T19:11:26.965Z,62.90
2018-10-11T19:14:30.745Z,60.80
2018-10-11T19:17:34.653Z,62.30
2018-10-11T19:20:38.282Z,61.70
2018-10-11T19:23:41.327Z,62.50
2018-10-11T19:26:45.106Z,62.80
2018-10-11T19:29:48.432Z,63.30
2018-10-11T19:32:52.398Z,64.00
2018-10-11T19:35:56.190Z,62.80
2018-10-11T19:38:59.221Z,64.40
2018-10-11T19:42:02.786Z,64.30
2018-10-11T19:45:06.697Z,64.90
2018-10-11T19:48:10.225Z,66.00
2018-10-11T19:51:13.757Z,64.80
2018-10-11T19:54:17.421Z,65.30
2018-10-11T19:57:21.912Z,64.50
2018-10-11T20:00:25.421Z,65.40
2018-10-11T20:03:29.582Z,64.10
2018-10-11T20:06:32.986Z,63.80
2018-10-11T20:09:36.583Z,63.50
2018-10-11T20:12:41.244Z,64.30
2018-10-11T20:15:45.053Z,62.40
2018-10-11T20:18:48.389Z,62.20
2018-10-11T20:21:51.881Z,62.50
2018-10-11T20:24:54.874Z,61.50
2018-10-11T20:28:01.587Z,61.10
2018-10-11T20:31:05.432Z,61.70
2018-10-11T20:34:09.216Z,61.30
2018-10-11T20:37:12.789Z,61.80
2018-10-11T20:40:15.805Z,61.20
2018-10-11T20:43:18.791Z,61.10
2018-10-11T20:46:21.858Z,61.30
2018-10-11T20:49:24.873Z,61.50
2018-10-11T20:52:27.947Z,62.30
2018-10-11T20:55:30.967Z,62.10
2018-10-11T20:58:33.886Z,62.40
2018-10-11T21:01:36.880Z,62.70
2018-10-11T21:04:39.841Z,63.60
2018-10-11T21:07:43.685Z,62.70
2018-10-11T21:10:46.609Z,62.80
2018-10-11T21:13:51.055Z,63.10
2018-10-11T21:16:55.418Z,62.70
2018-10-11T21:19:59.065Z,63.10
2018-10-11T21:23:02.103Z,63.00
2018-10-11T21:26:05.127Z,63.00
2018-10-11T21:29:08.043Z,63.50
2018-10-11T21:32:11.253Z,63.80
2018-10-11T21:35:14.177Z,63.00
2018-10-11T21:38:17.119Z,63.00
2018-10-11T21:41:20.093Z,64.50
2018-10-11T21:44:23.031Z,63.10
2018-10-11T21:47:25.980Z,62.50
2018-10-11T21:50:28.911Z,63.90
2018-10-11T21:53:31.775Z,63.90
2018-10-11T21:56:34.721Z,63.40
2018-10-11T21:59:37.752Z,63.40
2018-10-11T22:02:40.710Z,64.20
2018-10-11T22:05:43.684Z,63.10
2018-10-11T22:08:46.624Z,64.20
2018-10-11T22:11:49.605Z,63.70
2018-10-11T22:14:52.546Z,62.90
2018-10-11T22:17:55.465Z,63.10
2018-10-11T22:20:58.470Z,62.60
2018-10-11T22:24:01.335Z,63.20
2018-10-11T22:27:04.414Z,62.70
2018-10-11T22:30:07.547Z,64.10
2018-10-11T22:33:10.513Z,65.00
2018-10-11T22:36:13.416Z,64.60
2018-10-11T22:39:16.408Z,64.70
2018-10-11T22:42:19.375Z,64.60
2018-10-11T22:45:22.632Z,65.10
2018-10-11T22:48:25.541Z,64.90
2018-10-11T22:51:28.575Z,65.70
2018-10-11T22:54:31.550Z,64.60
2018-10-11T22:57:34.490Z,63.90
2018-10-11T23:00:37.487Z,65.00
2018-10-11T23:03:40.408Z,65.00
2018-10-11T23:06:43.337Z,64.60
2018-10-11T23:09:46.258Z,63.70
2018-10-11T23:12:49.130Z,64.20
2018-10-11T23:15:52.053Z,65.20
2018-10-11T23:18:54.954Z,64.40
2018-10-11T23:21:57.882Z,64.00
2018-10-11T23:25:00.860Z,63.50
2018-10-11T23:28:03.869Z,62.80
2018-10-11T23:31:07.348Z,61.90
2018-10-11T23:34:10.265Z,62.10
2018-10-11T23:37:13.182Z,61.90
2018-10-11T23:40:16.113Z,62.60
2018-10-11T23:43:19.061Z,61.40
2018-10-11T23:46:21.979Z,62.30
2018-10-11T23:49:24.905Z,60.60
2018-10-11T23:52:27.782Z,61.10
2018-10-11T23:55:31.563Z,62.30
2018-10-11T23:58:34.544Z,61.90
